createdAt,value
2019-04-01T00:00:24.534Z,99.90
2019-04-01T00:02:53.801Z,99.90
2019-04-01T00:05:23.105Z,99.90
2019-04-01T00:07:52.494Z,99.90
2019-04-01T00:10:22.077Z,99.90
2019-04-01T00:12:51.359Z,99.90
2019-04-01T00:15:20.573Z,99.90
2019-04-01T00:17:49.836Z,99.90
2019-04-01T00:20:19.119Z,99.90
2019-04-01T00:22:48.522Z,99.90
2019-04-01T00:25:18.195Z,99.90
2019-04-01T00:27:47.682Z,99.90
2019-04-01T00:30:17.042Z,99.90
2019-04-01T00:32:46.238Z,99.90
2019-04-01T00:35:15.475Z,99.90
2019-04-01T00:37:44.662Z,99.90
2019-04-01T00:40:14.100Z,99.90
2019-04-01T00:42:57.221Z,99.90
2019-04-01T00:45:26.854Z,99.90
2019-04-01T00:47:56.641Z,99.90
2019-04-01T00:50:25.913Z,99.90
2019-04-01T00:52:55.106Z,99.90
2019-04-01T00:55:24.325Z,99.90
2019-04-01T00:57:53.935Z,99.90
2019-04-01T01:00:23.221Z,99.90
2019-04-01T01:02:52.412Z,99.90
2019-04-01T01:05:22.007Z,99.90
2019-04-01T01:07:51.215Z,99.90
2019-04-01T01:10:20.493Z,99.90
2019-04-01T01:12:49.870Z,99.90
2019-04-01T01:15:19.136Z,99.90
2019-04-01T01:17:48.448Z,99.90
2019-04-01T01:20:17.757Z,99.90
2019-04-01T01:22:47.362Z,99.90
2019-04-01T01:25:17.451Z,99.90
2019-04-01T01:27:46.742Z,99.90
2019-04-01T01:30:15.949Z,99.90
2019-04-01T01:32:45.158Z,99.90
2019-04-01T01:35:14.349Z,99.90
2019-04-01T01:37:43.542Z,99.90
2019-04-01T01:40:13.490Z,99.90
2019-04-01T01:42:43.199Z,99.90
2019-04-01T01:45:12.531Z,99.90
2019-04-01T01:47:41.778Z,99.90
2019-04-01T01:50:11.009Z,99.90
2019-04-01T01:52:40.617Z,99.90
2019-04-01T01:55:09.883Z,99.90
2019-04-01T01:57:39.145Z,99.90
2019-04-01T02:00:09.205Z,99.90
2019-04-01T02:02:38.425Z,99.90
2019-04-01T02:05:09.080Z,99.90
2019-04-01T02:07:38.714Z,99.90
2019-04-01T02:10:08.095Z,99.90
2019-04-01T02:12:37.618Z,99.90
2019-04-01T02:15:06.962Z,99.90
2019-04-01T02:17:36.236Z,99.90
2019-04-01T02:20:05.941Z,99.90
2019-04-01T02:22:35.393Z,99.90
2019-04-01T02:25:05.148Z,99.90
2019-04-01T02:27:35.715Z,99.90
2019-04-01T02:30:05.389Z,99.90
2019-04-01T02:32:34.660Z,99.90
2019-04-01T02:35:04.022Z,99.90
2019-04-01T02:37:33.286Z,99.90
2019-04-01T02:40:03.274Z,99.90
2019-04-01T02:42:33.056Z,99.90
2019-04-01T02:45:02.250Z,99.90
2019-04-01T02:47:31.473Z,99.90
2019-04-01T02:50:00.673Z,99.90
2019-04-01T02:52:29.872Z,99.90
2019-04-01T02:54:59.234Z,99.90
2019-04-01T02:57:28.635Z,99.90
2019-04-01T02:59:57.975Z,99.90
2019-04-01T03:02:27.675Z,99.90
2019-04-01T03:04:56.874Z,99.90
2019-04-01T03:07:26.126Z,99.90
2019-04-01T03:09:55.433Z,99.90
2019-04-01T03:12:24.781Z,99.90
2019-04-01T03:14:54.087Z,99.90
2019-04-01T03:17:23.750Z,99.90
2019-04-01T03:19:53.055Z,99.90
2019-04-01T03:22:22.594Z,99.90
2019-04-01T03:24:51.981Z,99.90
2019-04-01T03:27:21.239Z,99.90
2019-04-01T03:29:51.032Z,99.90
2019-04-01T03:32:20.430Z,99.90
2019-04-01T03:34:49.828Z,99.90
2019-04-01T03:37:19.075Z,99.90
2019-04-01T03:39:48.465Z,99.90
2019-04-01T03:42:18.018Z,99.90
2019-04-01T03:44:47.645Z,99.90
2019-04-01T03:47:16.859Z,99.90
2019-04-01T03:49:46.054Z,99.90
2019-04-01T03:52:15.721Z,99.90
2019-04-01T03:54:45.062Z,99.90
2019-04-01T03:57:14.376Z,99.90
2019-04-01T03:59:44.069Z,99.90
2019-04-01T04:02:13.249Z,99.90
2019-04-01T04:04:42.474Z,99.90
2019-04-01T04:07:11.770Z,99.90
2019-04-01T04:09:41.018Z,99.90
2019-04-01T04:12:10.295Z,99.90
2019-04-01T04:14:39.647Z,99.90
2019-04-01T04:17:08.946Z,99.90
2019-04-01T04:19:38.340Z,99.90
2019-04-01T04:22:07.551Z,99.90
2019-04-01T04:24:36.938Z,99.90
2019-04-01T04:27:10.828Z,99.90
2019-04-01T04:29:38.027Z,99.90
2019-04-01T04:32:07.428Z,99.90
2019-04-01T04:34:37.233Z,99.90
2019-04-01T04:37:06.526Z,99.90
2019-04-01T04:39:35.869Z,99.90
2019-04-01T04:42:05.225Z,99.90
2019-04-01T04:44:34.564Z,99.90
2019-04-01T04:47:03.845Z,99.90
2019-04-01T04:49:33.762Z,99.90
2019-04-01T04:52:04.743Z,99.90
2019-04-01T04:54:34.273Z,99.90
2019-04-01T04:57:03.645Z,99.90
2019-04-01T04:59:33.302Z,99.90
2019-04-01T05:02:02.800Z,99.90
2019-04-01T05:04:32.405Z,99.90
2019-04-01T05:07:02.112Z,99.90
2019-04-01T05:09:31.777Z,99.90
2019-04-01T05:12:01.163Z,99.90
2019-04-01T05:14:30.498Z,99.90
2019-04-01T05:16:59.832Z,99.90
2019-04-01T05:19:29.142Z,99.90
2019-04-01T05:21:59.661Z,99.90
2019-04-01T05:24:31.022Z,99.90
2019-04-01T05:27:01.467Z,99.90
2019-04-01T05:29:32.687Z,99.90
2019-04-01T05:32:04.343Z,99.90
2019-04-01T05:34:36.830Z,99.90
2019-04-01T05:37:08.900Z,99.90
2019-04-01T05:39:37.301Z,99.90
2019-04-01T05:42:06.546Z,99.90
2019-04-01T05:44:35.838Z,99.90
2019-04-01T05:47:05.158Z,99.90
2019-04-01T05:49:34.640Z,99.90
2019-04-01T05:52:04.075Z,99.90
2019-04-01T05:54:33.880Z,99.90
2019-04-01T05:57:03.194Z,99.90
2019-04-01T05:59:32.476Z,99.90
2019-04-01T06:02:03.643Z,99.90
2019-04-01T06:04:33.241Z,99.90
2019-04-01T06:07:02.780Z,99.90
2019-04-01T06:09:32.108Z,99.90
2019-04-01T06:12:02.693Z,99.90
2019-04-01T06:14:33.248Z,99.90
2019-04-01T06:17:02.911Z,99.90
2019-04-01T06:19:32.300Z,99.90
2019-04-01T06:22:02.032Z,99.90
2019-04-01T06:24:32.445Z,99.90
2019-04-01T06:27:02.256Z,99.90
2019-04-01T06:29:31.650Z,99.90
2019-04-01T06:32:01.082Z,99.90
2019-04-01T06:34:30.405Z,99.90
2019-04-01T06:37:00.206Z,99.90
2019-04-01T06:39:29.558Z,99.90
2019-04-01T06:41:59.389Z,99.90
2019-04-01T06:44:28.753Z,99.90
2019-04-01T06:46:58.062Z,99.90
2019-04-01T06:49:27.680Z,99.90
2019-04-01T06:51:57.302Z,99.90
2019-04-01T06:54:26.650Z,99.90
2019-04-01T06:56:57.648Z,99.90
2019-04-01T06:59:27.194Z,99.90
2019-04-01T07:01:56.801Z,99.90
2019-04-01T07:04:25.983Z,99.90
2019-04-01T07:06:55.302Z,99.90
2019-04-01T07:09:24.799Z,99.90
2019-04-01T07:11:55.874Z,99.90
2019-04-01T07:14:28.167Z,99.90
2019-04-01T07:16:57.654Z,99.90
2019-04-01T07:19:27.617Z,99.90
2019-04-01T07:21:56.889Z,99.90
2019-04-01T07:24:26.160Z,99.90
2019-04-01T07:26:55.479Z,99.90
2019-04-01T07:29:24.837Z,99.90
2019-04-01T07:31:54.315Z,99.90
2019-04-01T07:34:23.662Z,99.90
2019-04-01T07:36:54.155Z,99.90
2019-04-01T07:39:23.844Z,99.90
2019-04-01T07:41:53.124Z,99.90
2019-04-01T07:44:22.499Z,99.90
2019-04-01T07:46:52.191Z,99.90
2019-04-01T07:49:21.626Z,99.90
2019-04-01T07:51:52.229Z,99.90
2019-04-01T07:54:21.536Z,99.90
2019-04-01T07:56:50.839Z,99.90
2019-04-01T07:59:20.097Z,99.90
2019-04-01T08:01:52.706Z,99.90
2019-04-01T08:04:20.659Z,99.90
2019-04-01T08:06:50.576Z,99.90
2019-04-01T08:09:20.417Z,99.90
2019-04-01T08:11:50.310Z,99.90
2019-04-01T08:14:19.775Z,99.90
2019-04-01T08:16:49.125Z,99.90
2019-04-01T08:19:18.506Z,99.90
2019-04-01T08:21:47.845Z,99.90
2019-04-01T08:24:17.134Z,99.90
2019-04-01T08:26:47.153Z,99.90
2019-04-01T08:29:29.491Z,99.90
2019-04-01T08:31:47.529Z,99.90
2019-04-01T08:34:16.813Z,99.90
2019-04-01T08:36:46.527Z,99.90
2019-04-01T08:39:16.528Z,99.90
2019-04-01T08:41:47.505Z,99.90
2019-04-01T08:44:17.683Z,99.90
2019-04-01T08:46:47.271Z,99.90
2019-04-01T08:49:16.846Z,99.90
2019-04-01T08:51:46.369Z,99.90
2019-04-01T08:54:15.816Z,99.90
2019-04-01T08:56:45.393Z,99.90
2019-04-01T08:59:14.665Z,99.90
2019-04-01T09:01:44.812Z,99.90
2019-04-01T09:04:14.420Z,99.90
2019-04-01T09:06:43.628Z,99.90
2019-04-01T09:09:12.841Z,99.90
2019-04-01T09:11:43.101Z,99.90
2019-04-01T09:14:12.564Z,99.90
2019-04-01T09:16:43.520Z,99.90
2019-04-01T09:19:13.119Z,99.90
2019-04-01T09:21:42.469Z,99.90
2019-04-01T09:24:12.412Z,99.90
2019-04-01T09:26:42.038Z,99.90
2019-04-01T09:29:11.320Z,99.90
2019-04-01T09:31:40.538Z,99.90
2019-04-01T09:34:09.786Z,99.90
2019-04-01T09:36:39.065Z,99.90
2019-04-01T09:39:08.784Z,99.90
2019-04-01T09:41:38.554Z,99.90
2019-04-01T09:44:08.039Z,99.90
2019-04-01T09:46:37.302Z,99.90
2019-04-01T09:49:06.486Z,99.90
2019-04-01T09:51:47.803Z,99.90
2019-04-01T09:54:06.756Z,99.90
2019-04-01T09:56:36.130Z,99.90
2019-04-01T09:59:05.567Z,99.90
2019-04-01T10:01:34.828Z,99.90
2019-04-01T10:04:04.210Z,99.90
2019-04-01T10:06:33.590Z,99.90
2019-04-01T10:09:04.002Z,99.90
2019-04-01T10:11:33.818Z,99.90
2019-04-01T10:14:04.442Z,99.90
2019-04-01T10:16:33.905Z,99.90
2019-04-01T10:19:03.788Z,99.90
2019-04-01T10:21:33.161Z,99.90
2019-04-01T10:24:02.537Z,99.90
2019-04-01T10:26:31.950Z,99.90
2019-04-01T10:29:01.366Z,99.90
2019-04-01T10:31:31.418Z,99.90
2019-04-01T10:34:00.772Z,99.90
2019-04-01T10:36:30.102Z,99.90
2019-04-01T10:38:59.337Z,99.90
2019-04-01T10:41:28.696Z,99.90
2019-04-01T10:43:57.994Z,99.90
2019-04-01T10:46:27.429Z,99.90
2019-04-01T10:48:59.019Z,99.90
2019-04-01T10:51:28.788Z,99.90
2019-04-01T10:53:58.042Z,99.90
2019-04-01T10:56:27.822Z,99.90
2019-04-01T10:58:57.112Z,99.90
2019-04-01T11:01:26.652Z,99.90
2019-04-01T11:03:56.183Z,99.90
2019-04-01T11:06:25.696Z,99.90
2019-04-01T11:08:55.070Z,99.90
2019-04-01T11:11:24.550Z,99.90
2019-04-01T11:13:54.422Z,99.90
2019-04-01T11:16:23.965Z,99.90
2019-04-01T11:18:53.373Z,99.90
2019-04-01T11:21:22.775Z,99.90
2019-04-01T11:23:52.649Z,99.90
2019-04-01T11:26:22.494Z,99.90
2019-04-01T11:28:51.913Z,99.90
2019-04-01T11:31:21.146Z,99.90
2019-04-01T11:33:50.567Z,99.90
2019-04-01T11:36:20.052Z,99.90
2019-04-01T11:38:49.289Z,99.90
2019-04-01T11:41:18.877Z,99.90
2019-04-01T11:43:48.278Z,99.90
2019-04-01T11:46:17.594Z,99.90
2019-04-01T11:48:46.956Z,99.90
2019-04-01T11:51:31.458Z,99.90
2019-04-01T11:53:48.809Z,99.90
2019-04-01T11:56:18.184Z,99.90
2019-04-01T11:58:47.445Z,99.90
2019-04-01T12:01:16.772Z,99.90
2019-04-01T12:03:46.193Z,99.90
2019-04-01T12:06:16.073Z,99.90
2019-04-01T12:08:46.032Z,99.90
2019-04-01T12:11:15.470Z,99.90
2019-04-01T12:13:45.150Z,99.90
2019-04-01T12:16:15.048Z,99.90
2019-04-01T12:18:44.808Z,99.90
2019-04-01T12:21:14.390Z,99.90
2019-04-01T12:23:44.092Z,99.90
2019-04-01T12:26:15.282Z,99.90
2019-04-01T12:28:44.537Z,99.90
2019-04-01T12:31:14.333Z,99.70
2019-04-01T12:33:44.028Z,98.50
2019-04-01T12:36:32.281Z,97.60
2019-04-01T12:39:01.520Z,96.70
2019-04-01T12:41:32.281Z,96.60
2019-04-01T12:44:01.600Z,95.70
2019-04-01T12:46:32.357Z,96.40
2019-04-01T12:49:01.819Z,95.90
2019-04-01T12:51:31.170Z,94.10
2019-04-01T12:54:00.628Z,93.70
2019-04-01T12:56:30.017Z,93.40
2019-04-01T12:58:59.329Z,92.30
2019-04-01T13:01:28.636Z,92.30
2019-04-01T13:03:57.892Z,91.40
2019-04-01T13:06:27.212Z,91.60
2019-04-01T13:08:56.566Z,90.80
2019-04-01T13:11:26.095Z,88.50
2019-04-01T13:13:56.130Z,85.00
2019-04-01T13:16:25.451Z,84.80
2019-04-01T13:18:54.751Z,83.70
2019-04-01T13:21:24.459Z,86.30
2019-04-01T13:23:53.842Z,83.70
2019-04-01T13:26:23.164Z,80.10
2019-04-01T13:28:52.460Z,78.90
2019-04-01T13:31:21.706Z,78.90
2019-04-01T13:33:51.012Z,80.60
2019-04-01T13:36:21.195Z,80.90
2019-04-01T13:38:51.030Z,78.80
2019-04-01T13:41:20.295Z,78.10
2019-04-01T13:43:49.981Z,78.30
2019-04-01T13:46:19.576Z,74.00
2019-04-01T13:48:57.402Z,71.90
2019-04-01T13:51:19.962Z,73.60
2019-04-01T13:53:49.350Z,72.50
2019-04-01T13:56:18.937Z,70.20
2019-04-01T13:58:48.402Z,70.50
2019-04-01T14:01:17.614Z,71.00
2019-04-01T14:03:47.159Z,71.10
2019-04-01T14:06:16.405Z,69.00
2019-04-01T14:08:45.680Z,72.80
2019-04-01T14:11:14.958Z,71.90
2019-04-01T14:13:44.304Z,68.40
2019-04-01T14:16:13.625Z,66.70
2019-04-01T14:18:43.255Z,63.90
2019-04-01T14:21:17.460Z,63.40
2019-04-01T14:23:43.678Z,64.10
2019-04-01T14:26:12.994Z,62.00
2019-04-01T14:28:42.297Z,60.60
2019-04-01T14:31:12.039Z,58.60
2019-04-01T14:33:41.379Z,62.20
2019-04-01T14:36:10.653Z,63.00
2019-04-01T14:38:40.112Z,61.90
2019-04-01T14:41:09.512Z,60.90
2019-04-01T14:43:40.176Z,58.80
2019-04-01T14:46:09.529Z,58.90
2019-04-01T14:48:39.187Z,60.40
2019-04-01T14:51:08.461Z,64.20
2019-04-01T14:53:38.194Z,66.80
2019-04-01T14:56:07.659Z,67.50
2019-04-01T14:58:37.294Z,68.00
2019-04-01T15:01:07.258Z,68.50
2019-04-01T15:03:36.568Z,69.50
2019-04-01T15:06:06.230Z,68.70
2019-04-01T15:08:35.493Z,65.50
2019-04-01T15:11:05.148Z,67.40
2019-04-01T15:13:34.480Z,64.70
2019-04-01T15:16:03.774Z,61.90
2019-04-01T15:18:34.456Z,62.00
2019-04-01T15:21:04.086Z,60.20
2019-04-01T15:23:34.203Z,59.70
2019-04-01T15:26:03.800Z,59.80
2019-04-01T15:28:33.507Z,58.30
2019-04-01T15:31:02.825Z,57.20
2019-04-01T15:33:32.618Z,58.60
2019-04-01T15:36:04.154Z,56.80
2019-04-01T15:38:33.369Z,58.40
2019-04-01T15:41:02.618Z,60.80
2019-04-01T15:43:31.905Z,60.30
2019-04-01T15:46:04.073Z,59.50
2019-04-01T15:48:32.431Z,63.00
2019-04-01T15:51:02.281Z,65.30
2019-04-01T15:53:31.665Z,66.10
2019-04-01T15:56:01.048Z,66.80
2019-04-01T15:58:30.747Z,68.20
2019-04-01T16:01:01.247Z,70.30
2019-04-01T16:03:30.985Z,70.60
2019-04-01T16:06:03.170Z,71.00
2019-04-01T16:08:33.490Z,70.70
2019-04-01T16:11:02.897Z,70.40
2019-04-01T16:13:32.626Z,70.90
2019-04-01T16:16:02.876Z,71.20
2019-04-01T16:18:32.486Z,71.70
2019-04-01T16:21:02.766Z,70.80
2019-04-01T16:23:32.110Z,65.00
2019-04-01T16:26:01.652Z,65.10
2019-04-01T16:28:30.963Z,63.90
2019-04-01T16:31:00.554Z,69.50
2019-04-01T16:33:29.772Z,69.00
2019-04-01T16:35:59.274Z,68.40
2019-04-01T16:38:28.858Z,65.00
2019-04-01T16:40:58.289Z,63.90
2019-04-01T16:43:27.582Z,65.70
2019-04-01T16:45:56.892Z,67.40
2019-04-01T16:48:26.320Z,68.50
2019-04-01T16:50:56.215Z,69.50
2019-04-01T16:53:25.515Z,70.10
2019-04-01T16:55:54.918Z,70.70
2019-04-01T16:58:24.218Z,72.00
2019-04-01T17:00:54.946Z,72.50
2019-04-01T17:03:24.674Z,73.80
2019-04-01T17:05:54.086Z,74.30
2019-04-01T17:08:23.444Z,75.00
2019-04-01T17:10:52.925Z,75.40
2019-04-01T17:13:22.211Z,76.20
2019-04-01T17:15:51.849Z,76.60
2019-04-01T17:18:21.772Z,77.10
2019-04-01T17:20:51.041Z,77.70
2019-04-01T17:23:20.786Z,78.70
2019-04-01T17:25:50.125Z,78.30
2019-04-01T17:28:19.882Z,79.00
2019-04-01T17:30:51.504Z,79.40
2019-04-01T17:33:21.174Z,80.00
2019-04-01T17:35:50.723Z,80.80
2019-04-01T17:38:20.359Z,81.20
2019-04-01T17:40:50.045Z,81.80
2019-04-01T17:43:22.963Z,81.80
2019-04-01T17:45:51.045Z,82.20
2019-04-01T17:48:20.325Z,82.40
2019-04-01T17:50:49.947Z,82.90
2019-04-01T17:53:19.231Z,83.10
2019-04-01T17:55:48.661Z,83.30
2019-04-01T17:58:18.232Z,84.00
2019-04-01T18:00:54.478Z,84.40
2019-04-01T18:03:24.268Z,84.90
2019-04-01T18:05:54.214Z,85.10
2019-04-01T18:08:24.020Z,85.10
2019-04-01T18:10:53.880Z,85.60
2019-04-01T18:13:24.268Z,86.10
2019-04-01T18:15:57.205Z,86.90
2019-04-01T18:18:27.398Z,87.60
2019-04-01T18:20:57.117Z,88.20
2019-04-01T18:23:26.976Z,88.50
2019-04-01T18:25:56.635Z,89.30
2019-04-01T18:28:26.368Z,90.00
2019-04-01T18:30:55.965Z,90.30
2019-04-01T18:33:25.705Z,90.60
2019-04-01T18:35:55.072Z,90.70
2019-04-01T18:38:24.486Z,91.10
2019-04-01T18:40:55.134Z,91.20
2019-04-01T18:43:24.437Z,91.50
2019-04-01T18:45:54.134Z,91.70
2019-04-01T18:48:23.939Z,92.30
2019-04-01T18:50:53.201Z,92.50
2019-04-01T18:53:22.465Z,92.40
2019-04-01T18:55:52.903Z,92.70
2019-04-01T18:58:22.277Z,92.50
2019-04-01T19:00:51.625Z,92.90
2019-04-01T19:03:23.883Z,93.00
2019-04-01T19:05:51.745Z,93.10
2019-04-01T19:08:20.982Z,93.30
2019-04-01T19:11:01.746Z,93.30
2019-04-01T19:13:21.349Z,93.40
2019-04-01T19:15:51.676Z,93.80
2019-04-01T19:18:21.530Z,93.80
2019-04-01T19:20:56.959Z,94.10
2019-04-01T19:23:21.711Z,94.30
2019-04-01T19:25:51.945Z,94.20
2019-04-01T19:28:21.471Z,94.50
2019-04-01T19:30:51.171Z,94.50
2019-04-01T19:33:20.918Z,94.80
2019-04-01T19:35:50.515Z,94.90
2019-04-01T19:38:21.365Z,95.00
2019-04-01T19:40:51.315Z,95.50
2019-04-01T19:43:21.431Z,95.90
2019-04-01T19:45:50.872Z,95.70
2019-04-01T19:48:20.706Z,95.90
2019-04-01T19:50:49.926Z,96.10
2019-04-01T19:53:19.202Z,96.30
2019-04-01T19:55:48.465Z,96.30
2019-04-01T19:58:17.944Z,96.50
2019-04-01T20:00:47.290Z,96.70
2019-04-01T20:03:16.504Z,96.70
2019-04-01T20:05:45.845Z,96.90
2019-04-01T20:08:16.363Z,97.30
2019-04-01T20:10:46.237Z,97.60
2019-04-01T20:13:16.059Z,97.90
2019-04-01T20:15:46.865Z,97.90
2019-04-01T20:18:16.189Z,98.20
2019-04-01T20:20:45.944Z,98.50
2019-04-01T20:23:15.302Z,98.70
2019-04-01T20:25:47.376Z,99.10
2019-04-01T20:28:15.584Z,99.30
2019-04-01T20:30:45.293Z,99.20
2019-04-01T20:33:17.951Z,99.60
2019-04-01T20:35:45.498Z,99.90
2019-04-01T20:38:14.824Z,99.90
2019-04-01T20:40:44.392Z,99.90
2019-04-01T20:43:15.200Z,99.90
2019-04-01T20:45:47.536Z,99.90
2019-04-01T20:48:17.091Z,99.90
2019-04-01T20:50:46.414Z,99.90
2019-04-01T20:53:15.716Z,99.90
2019-04-01T20:55:48.456Z,99.90
2019-04-01T20:58:15.957Z,99.90
2019-04-01T21:00:45.603Z,99.90
2019-04-01T21:03:14.892Z,99.90
2019-04-01T21:05:44.441Z,99.90
2019-04-01T21:08:13.768Z,99.90
2019-04-01T21:10:43.010Z,99.90
2019-04-01T21:13:12.298Z,99.90
2019-04-01T21:15:41.501Z,99.90
2019-04-01T21:18:10.693Z,99.90
2019-04-01T21:20:39.948Z,99.90
2019-04-01T21:23:09.260Z,99.90
2019-04-01T21:25:38.630Z,99.90
2019-04-01T21:28:07.845Z,99.90
2019-04-01T21:30:37.049Z,99.90
2019-04-01T21:33:06.375Z,99.90
2019-04-01T21:35:35.693Z,99.90
2019-04-01T21:38:04.903Z,99.90
2019-04-01T21:40:34.106Z,99.90
2019-04-01T21:43:03.650Z,99.90
2019-04-01T21:45:32.981Z,99.90
2019-04-01T21:48:02.783Z,99.90
2019-04-01T21:50:31.981Z,99.90
2019-04-01T21:53:02.156Z,99.90
2019-04-01T21:55:31.890Z,99.90
2019-04-01T21:58:01.181Z,99.90
2019-04-01T22:00:49.818Z,99.90
2019-04-01T22:03:20.856Z,99.90
2019-04-01T22:05:50.031Z,99.90
2019-04-01T22:08:19.378Z,99.90
2019-04-01T22:10:49.089Z,99.90
2019-04-01T22:13:18.327Z,99.90
2019-04-01T22:15:47.585Z,99.90
2019-04-01T22:18:16.860Z,99.90
2019-04-01T22:20:46.148Z,99.90
2019-04-01T22:23:15.808Z,99.90
2019-04-01T22:25:45.127Z,99.90
2019-04-01T22:28:14.390Z,99.90
2019-04-01T22:30:43.599Z,99.90
2019-04-01T22:33:13.378Z,99.90
2019-04-01T22:35:42.621Z,99.90
2019-04-01T22:38:24.335Z,99.90
2019-04-01T22:40:44.098Z,99.90
2019-04-01T22:43:13.398Z,99.90
2019-04-01T22:45:42.654Z,99.90
2019-04-01T22:48:11.877Z,99.90
2019-04-01T22:50:41.256Z,99.90
2019-04-01T22:53:12.117Z,99.90
2019-04-01T22:55:41.704Z,99.90
2019-04-01T22:58:10.922Z,99.90
2019-04-01T23:00:40.176Z,99.90
2019-04-01T23:03:11.258Z,99.90
2019-04-01T23:05:40.486Z,99.90
2019-04-01T23:08:09.968Z,99.90
2019-04-01T23:10:39.173Z,99.90
2019-04-01T23:13:08.669Z,99.90
2019-04-01T23:15:38.732Z,99.90
2019-04-01T23:18:08.005Z,99.90
2019-04-01T23:20:37.343Z,99.90
2019-04-01T23:23:06.521Z,99.90
2019-04-01T23:25:35.789Z,99.90
2019-04-01T23:28:05.083Z,99.90
2019-04-01T23:30:34.446Z,99.90
2019-04-01T23:33:03.710Z,99.90
2019-04-01T23:35:33.426Z,99.90
2019-04-01T23:38:02.597Z,99.90
2019-04-01T23:40:32.428Z,99.90
2019-04-01T23:43:02.193Z,99.90
2019-04-01T23:45:31.464Z,99.90
2019-04-01T23:48:01.043Z,99.90
2019-04-01T23:50:30.369Z,99.90
2019-04-01T23:52:59.691Z,99.90
2019-04-01T23:55:29.285Z,99.90
2019-04-01T23:57:58.966Z,99.90
